sensor_id;sensor_type;location;lat;lon;timestamp;pressure;altitude;pressure_sealevel;temperature;humidity
16016;BME280;8112;53.592;10.184;2023-06-14T00:03:54;101524.94;;;16.33;100.00
16016;BME280;8112;53.592;10.184;2023-06-14T00:08:56;101527.19;;;16.39;100.00
16016;BME280;8112;53.592;10.184;2023-06-14T00:13:58;101527.72;;;16.81;100.00
16016;BME280;8112;53.592;10.184;2023-06-14T00:19:02;101528.31;;;16.61;100.00
16016;BME280;8112;53.592;10.184;2023-06-14T00:24:05;101535.03;;;16.53;100.00
16016;BME280;8112;53.592;10.184;2023-06-14T00:29:07;101534.41;;;16.50;100.00
16016;BME280;8112;53.592;10.184;2023-06-14T00:34:10;101539.69;;;16.63;100.00
16016;BME280;8112;53.592;10.184;2023-06-14T00:39:15;101539.56;;;16.64;100.00
16016;BME280;8112;53.592;10.184;2023-06-14T00:44:17;101544.09;;;16.51;100.00
16016;BME280;8112;53.592;10.184;2023-06-14T00:49:21;101553.03;;;16.50;100.00
16016;BME280;8112;53.592;10.184;2023-06-14T00:54:23;101556.44;;;16.52;100.00
16016;BME280;8112;53.592;10.184;2023-06-14T00:59:25;101551.31;;;16.36;100.00
16016;BME280;8112;53.592;10.184;2023-06-14T01:04:28;101546.78;;;16.38;100.00
16016;BME280;8112;53.592;10.184;2023-06-14T01:09:37;101554.75;;;16.38;100.00
16016;BME280;8112;53.592;10.184;2023-06-14T01:14:42;101559.63;;;16.18;100.00
16016;BME280;8112;53.592;10.184;2023-06-14T01:19:47;101567.53;;;16.20;100.00
16016;BME280;8112;53.592;10.184;2023-06-14T01:24:50;101563.25;;;16.17;100.00
16016;BME280;8112;53.592;10.184;2023-06-14T01:29:55;101560.50;;;16.06;100.00
16016;BME280;8112;53.592;10.184;2023-06-14T01:34:58;101557.72;;;16.07;100.00
16016;BME280;8112;53.592;10.184;2023-06-14T01:40:06;101570.03;;;15.82;100.00
16016;BME280;8112;53.592;10.184;2023-06-14T01:45:09;101554.56;;;16.02;100.00
16016;BME280;8112;53.592;10.184;2023-06-14T01:50:12;101558.25;;;16.00;100.00
16016;BME280;8112;53.592;10.184;2023-06-14T01:55:16;101565.38;;;15.86;100.00
16016;BME280;8112;53.592;10.184;2023-06-14T02:00:19;101556.81;;;15.68;100.00
16016;BME280;8112;53.592;10.184;2023-06-14T02:05:22;101567.84;;;15.49;100.00
16016;BME280;8112;53.592;10.184;2023-06-14T02:10:26;101564.00;;;15.40;100.00
16016;BME280;8112;53.592;10.184;2023-06-14T02:15:30;101572.03;;;15.79;100.00
16016;BME280;8112;53.592;10.184;2023-06-14T02:20:34;101564.34;;;15.48;100.00
16016;BME280;8112;53.592;10.184;2023-06-14T02:25:38;101569.03;;;15.58;100.00
16016;BME280;8112;53.592;10.184;2023-06-14T02:30:43;101565.09;;;15.50;100.00
16016;BME280;8112;53.592;10.184;2023-06-14T02:35:45;101568.16;;;15.44;100.00
16016;BME280;8112;53.592;10.184;2023-06-14T02:40:49;101576.34;;;15.41;100.00
16016;BME280;8112;53.592;10.184;2023-06-14T02:45:51;101580.09;;;15.64;100.00
16016;BME280;8112;53.592;10.184;2023-06-14T02:50:55;101577.59;;;15.89;100.00
16016;BME280;8112;53.592;10.184;2023-06-14T02:55:59;101587.31;;;16.03;100.00
16016;BME280;8112;53.592;10.184;2023-06-14T03:01:02;101586.47;;;15.62;100.00
16016;BME280;8112;53.592;10.184;2023-06-14T03:06:07;101591.50;;;15.66;100.00
16016;BME280;8112;53.592;10.184;2023-06-14T03:11:14;101588.09;;;15.77;100.00
16016;BME280;8112;53.592;10.184;2023-06-14T03:16:18;101596.16;;;15.76;100.00
16016;BME280;8112;53.592;10.184;2023-06-14T03:21:23;101597.47;;;15.43;100.00
16016;BME280;8112;53.592;10.184;2023-06-14T03:26:28;101594.06;;;15.41;100.00
16016;BME280;8112;53.592;10.184;2023-06-14T03:31:33;101598.84;;;15.35;100.00
16016;BME280;8112;53.592;10.184;2023-06-14T03:36:38;101602.97;;;15.67;100.00
16016;BME280;8112;53.592;10.184;2023-06-14T03:41:42;101608.16;;;15.96;100.00
16016;BME280;8112;53.592;10.184;2023-06-14T03:46:45;101608.69;;;16.14;100.00
16016;BME280;8112;53.592;10.184;2023-06-14T03:51:47;101617.50;;;16.41;100.00
16016;BME280;8112;53.592;10.184;2023-06-14T03:56:55;101630.16;;;16.76;100.00
16016;BME280;8112;53.592;10.184;2023-06-14T04:01:57;101636.34;;;16.76;100.00
16016;BME280;8112;53.592;10.184;2023-06-14T04:07:01;101645.25;;;16.88;100.00
16016;BME280;8112;53.592;10.184;2023-06-14T04:12:09;101647.22;;;16.98;100.00
16016;BME280;8112;53.592;10.184;2023-06-14T04:17:12;101656.41;;;17.06;100.00
16016;BME280;8112;53.592;10.184;2023-06-14T04:22:17;101661.63;;;17.45;100.00
16016;BME280;8112;53.592;10.184;2023-06-14T04:27:22;101659.66;;;17.23;100.00
16016;BME280;8112;53.592;10.184;2023-06-14T04:32:26;101662.72;;;17.30;100.00
16016;BME280;8112;53.592;10.184;2023-06-14T04:37:30;101663.97;;;17.61;100.00
16016;BME280;8112;53.592;10.184;2023-06-14T04:42:36;101660.31;;;17.87;100.00
16016;BME280;8112;53.592;10.184;2023-06-14T04:47:41;101662.22;;;17.73;100.00
16016;BME280;8112;53.592;10.184;2023-06-14T04:52:43;101655.06;;;17.74;100.00
16016;BME280;8112;53.592;10.184;2023-06-14T04:57:47;101652.19;;;17.77;100.00
16016;BME280;8112;53.592;10.184;2023-06-14T05:02:49;101657.72;;;17.98;100.00
16016;BME280;8112;53.592;10.184;2023-06-14T05:07:54;101659.00;;;18.17;100.00
16016;BME280;8112;53.592;10.184;2023-06-14T05:12:57;101657.53;;;18.24;100.00
16016;BME280;8112;53.592;10.184;2023-06-14T05:17:59;101660.50;;;18.32;100.00
16016;BME280;8112;53.592;10.184;2023-06-14T05:23:01;101656.38;;;18.85;100.00
16016;BME280;8112;53.592;10.184;2023-06-14T05:28:04;101651.25;;;19.16;100.00
16016;BME280;8112;53.592;10.184;2023-06-14T05:33:06;101653.47;;;19.00;100.00
16016;BME280;8112;53.592;10.184;2023-06-14T05:38:08;101655.13;;;19.68;100.00
16016;BME280;8112;53.592;10.184;2023-06-14T05:43:12;101660.75;;;20.28;100.00
16016;BME280;8112;53.592;10.184;2023-06-14T05:48:13;101660.16;;;20.46;100.00
16016;BME280;8112;53.592;10.184;2023-06-14T05:53:16;101677.09;;;20.25;100.00
16016;BME280;8112;53.592;10.184;2023-06-14T05:58:19;101684.25;;;20.46;100.00
16016;BME280;8112;53.592;10.184;2023-06-14T06:03:21;101682.91;;;20.83;100.00
16016;BME280;8112;53.592;10.184;2023-06-14T06:08:23;101683.13;;;21.20;100.00
16016;BME280;8112;53.592;10.184;2023-06-14T06:13:26;101694.59;;;21.23;100.00
16016;BME280;8112;53.592;10.184;2023-06-14T06:18:29;101673.88;;;21.34;100.00
16016;BME280;8112;53.592;10.184;2023-06-14T06:23:31;101685.69;;;21.22;100.00
16016;BME280;8112;53.592;10.184;2023-06-14T06:28:34;101683.50;;;21.76;100.00
16016;BME280;8112;53.592;10.184;2023-06-14T06:33:36;101687.47;;;21.72;100.00
16016;BME280;8112;53.592;10.184;2023-06-14T06:38:40;101690.59;;;21.77;100.00
16016;BME280;8112;53.592;10.184;2023-06-14T06:43:43;101697.06;;;22.04;100.00
16016;BME280;8112;53.592;10.184;2023-06-14T06:48:45;101694.47;;;22.32;100.00
16016;BME280;8112;53.592;10.184;2023-06-14T06:53:52;101700.97;;;22.49;100.00
16016;BME280;8112;53.592;10.184;2023-06-14T06:58:55;101704.22;;;22.81;100.00
16016;BME280;8112;53.592;10.184;2023-06-14T07:03:57;101704.56;;;23.06;100.00
16016;BME280;8112;53.592;10.184;2023-06-14T07:08:59;101711.97;;;23.22;100.00
16016;BME280;8112;53.592;10.184;2023-06-14T07:14:03;101718.88;;;23.53;99.47
16016;BME280;8112;53.592;10.184;2023-06-14T07:19:05;101716.03;;;23.54;97.31
16016;BME280;8112;53.592;10.184;2023-06-14T07:24:07;101726.56;;;23.66;92.44
16016;BME280;8112;53.592;10.184;2023-06-14T07:29:11;101717.09;;;23.61;91.80
16016;BME280;8112;53.592;10.184;2023-06-14T07:34:13;101702.03;;;23.69;92.00
16016;BME280;8112;53.592;10.184;2023-06-14T07:39:15;101709.25;;;23.68;90.94
16016;BME280;8112;53.592;10.184;2023-06-14T07:44:18;101717.94;;;23.80;90.45
16016;BME280;8112;53.592;10.184;2023-06-14T07:49:21;101700.13;;;23.61;88.36
16016;BME280;8112;53.592;10.184;2023-06-14T07:54:23;101710.28;;;24.03;88.77
16016;BME280;8112;53.592;10.184;2023-06-14T07:59:28;101703.41;;;23.91;85.64
16016;BME280;8112;53.592;10.184;2023-06-14T08:04:30;101707.25;;;24.25;85.59
16016;BME280;8112;53.592;10.184;2023-06-14T08:09:32;101707.53;;;24.48;82.67
16016;BME280;8112;53.592;10.184;2023-06-14T08:14:36;101700.06;;;24.95;80.92
16016;BME280;8112;53.592;10.184;2023-06-14T08:19:38;101709.97;;;25.45;80.94
16016;BME280;8112;53.592;10.184;2023-06-14T08:24:41;101694.63;;;24.86;79.37
16016;BME280;8112;53.592;10.184;2023-06-14T08:29:44;101702.00;;;25.27;80.39
16016;BME280;8112;53.592;10.184;2023-06-14T08:34:47;101706.72;;;25.33;79.28
16016;BME280;8112;53.592;10.184;2023-06-14T08:39:49;101712.31;;;24.81;76.51
16016;BME280;8112;53.592;10.184;2023-06-14T08:44:52;101701.19;;;24.57;78.57
16016;BME280;8112;53.592;10.184;2023-06-14T08:49:55;101703.94;;;25.52;76.86
16016;BME280;8112;53.592;10.184;2023-06-14T08:54:58;101711.22;;;25.59;74.17
16016;BME280;8112;53.592;10.184;2023-06-14T09:00:05;101709.69;;;25.49;71.95
16016;BME280;8112;53.592;10.184;2023-06-14T09:05:12;101706.31;;;25.80;73.48
16016;BME280;8112;53.592;10.184;2023-06-14T09:10:15;101705.13;;;25.82;67.68
16016;BME280;8112;53.592;10.184;2023-06-14T09:15:19;101702.44;;;25.74;70.00
16016;BME280;8112;53.592;10.184;2023-06-14T09:20:23;101702.31;;;26.17;69.46
16016;BME280;8112;53.592;10.184;2023-06-14T09:25:26;101705.28;;;25.56;70.01
16016;BME280;8112;53.592;10.184;2023-06-14T09:30:29;101705.09;;;25.49;68.93
16016;BME280;8112;53.592;10.184;2023-06-14T09:35:31;101713.09;;;26.25;69.32
16016;BME280;8112;53.592;10.184;2023-06-14T09:40:49;101698.22;;;26.38;68.48
16016;BME280;8112;53.592;10.184;2023-06-14T09:45:51;101707.88;;;26.80;64.74
16016;BME280;8112;53.592;10.184;2023-06-14T09:50:55;101693.38;;;26.65;62.55
16016;BME280;8112;53.592;10.184;2023-06-14T09:56:01;101689.25;;;26.45;64.94
16016;BME280;8112;53.592;10.184;2023-06-14T10:01:03;101697.03;;;26.88;62.40
16016;BME280;8112;53.592;10.184;2023-06-14T10:06:08;101693.69;;;27.18;60.17
16016;BME280;8112;53.592;10.184;2023-06-14T10:11:12;101698.56;;;27.54;59.76
16016;BME280;8112;53.592;10.184;2023-06-14T10:16:17;101692.78;;;27.26;59.66
16016;BME280;8112;53.592;10.184;2023-06-14T10:21:27;101685.97;;;27.62;59.24
16016;BME280;8112;53.592;10.184;2023-06-14T10:26:31;101687.44;;;27.41;57.26
16016;BME280;8112;53.592;10.184;2023-06-14T10:31:43;101688.88;;;27.98;58.08
16016;BME280;8112;53.592;10.184;2023-06-14T10:36:45;101685.06;;;26.74;59.17
16016;BME280;8112;53.592;10.184;2023-06-14T10:41:53;101682.41;;;26.58;59.33
16016;BME280;8112;53.592;10.184;2023-06-14T10:46:55;101675.88;;;26.44;60.46
16016;BME280;8112;53.592;10.184;2023-06-14T10:51:59;101671.81;;;26.48;58.71
16016;BME280;8112;53.592;10.184;2023-06-14T10:57:06;101660.84;;;27.91;56.74
16016;BME280;8112;53.592;10.184;2023-06-14T11:02:24;101663.41;;;27.69;54.21
16016;BME280;8112;53.592;10.184;2023-06-14T11:07:40;101656.06;;;28.31;56.34
16016;BME280;8112;53.592;10.184;2023-06-14T11:12:47;101649.13;;;28.59;53.02
16016;BME280;8112;53.592;10.184;2023-06-14T11:17:50;101644.72;;;28.88;49.73
16016;BME280;8112;53.592;10.184;2023-06-14T11:22:53;101639.34;;;27.28;53.48
16016;BME280;8112;53.592;10.184;2023-06-14T11:27:57;101639.19;;;27.44;55.53
16016;BME280;8112;53.592;10.184;2023-06-14T11:32:59;101641.25;;;28.04;52.13
16016;BME280;8112;53.592;10.184;2023-06-14T11:38:01;101632.31;;;28.34;52.96
16016;BME280;8112;53.592;10.184;2023-06-14T11:43:05;101619.19;;;28.82;50.56
16016;BME280;8112;53.592;10.184;2023-06-14T11:48:07;101637.16;;;29.05;49.52
16016;BME280;8112;53.592;10.184;2023-06-14T11:53:09;101624.38;;;28.47;50.63
16016;BME280;8112;53.592;10.184;2023-06-14T11:58:12;101626.00;;;27.73;52.18
16016;BME280;8112;53.592;10.184;2023-06-14T12:03:14;101624.44;;;27.32;53.00
16016;BME280;8112;53.592;10.184;2023-06-14T12:08:16;101624.00;;;26.88;53.61
16016;BME280;8112;53.592;10.184;2023-06-14T12:13:20;101613.97;;;26.66;56.57
16016;BME280;8112;53.592;10.184;2023-06-14T12:18:31;101622.06;;;26.74;56.48
16016;BME280;8112;53.592;10.184;2023-06-14T12:23:45;101596.38;;;27.25;53.50
16016;BME280;8112;53.592;10.184;2023-06-14T12:28:48;101606.44;;;26.84;56.23
16016;BME280;8112;53.592;10.184;2023-06-14T12:33:50;101601.31;;;26.98;56.29
16016;BME280;8112;53.592;10.184;2023-06-14T12:38:52;101606.59;;;27.61;54.63
16016;BME280;8112;53.592;10.184;2023-06-14T12:43:56;101606.91;;;27.43;52.26
16016;BME280;8112;53.592;10.184;2023-06-14T12:49:00;101589.41;;;27.30;50.32
16016;BME280;8112;53.592;10.184;2023-06-14T12:54:01;101620.28;;;26.89;54.43
16016;BME280;8112;53.592;10.184;2023-06-14T12:59:05;101615.63;;;26.75;54.72
16016;BME280;8112;53.592;10.184;2023-06-14T13:04:07;101594.22;;;26.97;52.15
16016;BME280;8112;53.592;10.184;2023-06-14T13:09:10;101595.50;;;26.86;52.34
16016;BME280;8112;53.592;10.184;2023-06-14T13:14:14;101593.38;;;26.96;52.79
16016;BME280;8112;53.592;10.184;2023-06-14T13:19:16;101594.25;;;26.00;54.70
16016;BME280;8112;53.592;10.184;2023-06-14T13:24:18;101589.34;;;26.04;54.85
16016;BME280;8112;53.592;10.184;2023-06-14T13:29:21;101598.25;;;26.13;55.33
16016;BME280;8112;53.592;10.184;2023-06-14T13:34:23;101588.09;;;26.40;52.42
16016;BME280;8112;53.592;10.184;2023-06-14T13:39:24;101585.50;;;26.86;53.41
16016;BME280;8112;53.592;10.184;2023-06-14T13:44:27;101587.28;;;27.02;53.76
16016;BME280;8112;53.592;10.184;2023-06-14T13:49:29;101588.41;;;26.45;51.23
16016;BME280;8112;53.592;10.184;2023-06-14T13:54:31;101592.06;;;27.15;51.14
16016;BME280;8112;53.592;10.184;2023-06-14T13:59:34;101582.56;;;26.96;49.94
16016;BME280;8112;53.592;10.184;2023-06-14T14:04:36;101589.41;;;26.44;51.50
16016;BME280;8112;53.592;10.184;2023-06-14T14:09:37;101574.72;;;26.38;51.29
16016;BME280;8112;53.592;10.184;2023-06-14T14:14:41;101573.41;;;26.34;50.75
16016;BME280;8112;53.592;10.184;2023-06-14T14:19:42;101580.34;;;26.28;49.34
16016;BME280;8112;53.592;10.184;2023-06-14T14:24:44;101572.69;;;26.40;50.31
16016;BME280;8112;53.592;10.184;2023-06-14T14:29:47;101573.69;;;26.79;52.56
16016;BME280;8112;53.592;10.184;2023-06-14T14:34:49;101576.03;;;26.82;49.27
16016;BME280;8112;53.592;10.184;2023-06-14T14:39:50;101583.69;;;26.39;49.08
16016;BME280;8112;53.592;10.184;2023-06-14T14:44:53;101581.59;;;26.49;47.15
16016;BME280;8112;53.592;10.184;2023-06-14T14:49:55;101574.34;;;26.81;48.80
16016;BME280;8112;53.592;10.184;2023-06-14T14:54:57;101584.53;;;26.71;48.22
16016;BME280;8112;53.592;10.184;2023-06-14T15:00:00;101588.91;;;26.80;46.69
16016;BME280;8112;53.592;10.184;2023-06-14T15:05:02;101583.53;;;26.72;46.97
16016;BME280;8112;53.592;10.184;2023-06-14T15:10:06;101578.53;;;26.60;48.16
16016;BME280;8112;53.592;10.184;2023-06-14T15:15:10;101577.63;;;27.46;46.08
16016;BME280;8112;53.592;10.184;2023-06-14T15:20:12;101568.91;;;27.36;45.49
16016;BME280;8112;53.592;10.184;2023-06-14T15:25:14;101576.81;;;30.39;41.37
16016;BME280;8112;53.592;10.184;2023-06-14T15:30:17;101570.34;;;31.22;39.08
16016;BME280;8112;53.592;10.184;2023-06-14T15:35:19;101573.44;;;30.01;39.24
16016;BME280;8112;53.592;10.184;2023-06-14T15:40:21;101577.16;;;28.93;40.65
16016;BME280;8112;53.592;10.184;2023-06-14T15:45:24;101583.25;;;28.28;42.33
16016;BME280;8112;53.592;10.184;2023-06-14T15:50:25;101583.53;;;28.03;42.57
16016;BME280;8112;53.592;10.184;2023-06-14T15:55:27;101576.78;;;27.99;42.52
16016;BME280;8112;53.592;10.184;2023-06-14T16:00:31;101566.97;;;27.98;42.55
16016;BME280;8112;53.592;10.184;2023-06-14T16:05:32;101573.44;;;29.66;39.66
16016;BME280;8112;53.592;10.184;2023-06-14T16:10:34;101569.72;;;31.20;36.70
16016;BME280;8112;53.592;10.184;2023-06-14T16:15:38;101564.25;;;31.40;35.15
16016;BME280;8112;53.592;10.184;2023-06-14T16:20:39;101562.16;;;32.42;35.20
16016;BME280;8112;53.592;10.184;2023-06-14T16:25:41;101563.81;;;31.50;33.61
16016;BME280;8112;53.592;10.184;2023-06-14T16:30:44;101576.56;;;30.40;35.00
16016;BME280;8112;53.592;10.184;2023-06-14T16:35:46;101564.25;;;28.58;37.08
16016;BME280;8112;53.592;10.184;2023-06-14T16:40:48;101575.75;;;28.15;37.09
16016;BME280;8112;53.592;10.184;2023-06-14T16:45:51;101573.41;;;28.42;37.52
16016;BME280;8112;53.592;10.184;2023-06-14T16:50:53;101573.47;;;29.01;36.62
16016;BME280;8112;53.592;10.184;2023-06-14T16:55:55;101576.69;;;29.33;35.16
16016;BME280;8112;53.592;10.184;2023-06-14T17:00:58;101569.94;;;29.22;35.15
16016;BME280;8112;53.592;10.184;2023-06-14T17:06:00;101570.81;;;28.86;35.08
16016;BME280;8112;53.592;10.184;2023-06-14T17:11:02;101578.88;;;28.27;36.04
16016;BME280;8112;53.592;10.184;2023-06-14T17:16:05;101579.69;;;28.95;34.21
16016;BME280;8112;53.592;10.184;2023-06-14T17:21:07;101576.63;;;28.68;34.43
16016;BME280;8112;53.592;10.184;2023-06-14T17:26:09;101582.06;;;27.39;35.49
16016;BME280;8112;53.592;10.184;2023-06-14T17:31:12;101600.56;;;25.59;38.74
16016;BME280;8112;53.592;10.184;2023-06-14T17:36:14;101590.91;;;25.07;38.80
16016;BME280;8112;53.592;10.184;2023-06-14T17:41:17;101598.91;;;24.82;39.58
16016;BME280;8112;53.592;10.184;2023-06-14T17:46:20;101599.41;;;24.77;41.08
16016;BME280;8112;53.592;10.184;2023-06-14T17:51:22;101599.25;;;24.79;40.95
16016;BME280;8112;53.592;10.184;2023-06-14T17:56:24;101603.28;;;24.83;40.23
16016;BME280;8112;53.592;10.184;2023-06-14T18:01:27;101597.09;;;24.13;41.67
16016;BME280;8112;53.592;10.184;2023-06-14T18:06:28;101605.81;;;23.89;42.27
16016;BME280;8112;53.592;10.184;2023-06-14T18:11:30;101602.75;;;23.84;42.04
16016;BME280;8112;53.592;10.184;2023-06-14T18:16:34;101610.81;;;23.57;42.44
16016;BME280;8112;53.592;10.184;2023-06-14T18:21:36;101609.84;;;23.67;43.47
16016;BME280;8112;53.592;10.184;2023-06-14T18:26:38;101609.97;;;23.39;45.38
16016;BME280;8112;53.592;10.184;2023-06-14T18:31:41;101613.28;;;23.23;45.82
16016;BME280;8112;53.592;10.184;2023-06-14T18:36:43;101613.84;;;23.08;47.48
16016;BME280;8112;53.592;10.184;2023-06-14T18:41:44;101617.16;;;23.20;46.49
16016;BME280;8112;53.592;10.184;2023-06-14T18:46:47;101612.66;;;23.39;48.22
16016;BME280;8112;53.592;10.184;2023-06-14T18:51:49;101614.59;;;24.87;45.81
16016;BME280;8112;53.592;10.184;2023-06-14T18:56:51;101622.94;;;24.06;44.84
16016;BME280;8112;53.592;10.184;2023-06-14T19:01:54;101620.97;;;22.99;48.01
16016;BME280;8112;53.592;10.184;2023-06-14T19:06:56;101619.41;;;22.78;49.11
16016;BME280;8112;53.592;10.184;2023-06-14T19:11:57;101619.78;;;22.46;48.97
16016;BME280;8112;53.592;10.184;2023-06-14T19:17:00;101622.78;;;22.05;48.90
16016;BME280;8112;53.592;10.184;2023-06-14T19:22:03;101631.72;;;21.76;50.27
16016;BME280;8112;53.592;10.184;2023-06-14T19:27:05;101629.28;;;21.43;51.01
16016;BME280;8112;53.592;10.184;2023-06-14T19:32:08;101627.44;;;21.34;53.43
16016;BME280;8112;53.592;10.184;2023-06-14T19:37:10;101634.34;;;21.17;53.83
16016;BME280;8112;53.592;10.184;2023-06-14T19:42:12;101639.75;;;20.86;55.88
16016;BME280;8112;53.592;10.184;2023-06-14T19:47:15;101642.09;;;20.79;58.23
16016;BME280;8112;53.592;10.184;2023-06-14T19:52:16;101635.03;;;20.68;59.78
16016;BME280;8112;53.592;10.184;2023-06-14T19:57:18;101641.00;;;20.50;60.80
16016;BME280;8112;53.592;10.184;2023-06-14T20:02:21;101647.53;;;20.27;62.84
16016;BME280;8112;53.592;10.184;2023-06-14T20:07:23;101642.22;;;19.94;63.60
16016;BME280;8112;53.592;10.184;2023-06-14T20:12:25;101645.47;;;19.76;65.09
16016;BME280;8112;53.592;10.184;2023-06-14T20:17:28;101648.88;;;19.78;68.16
16016;BME280;8112;53.592;10.184;2023-06-14T20:22:30;101652.97;;;19.83;70.14
16016;BME280;8112;53.592;10.184;2023-06-14T20:27:37;101652.34;;;19.58;69.67
16016;BME280;8112;53.592;10.184;2023-06-14T20:32:40;101655.59;;;19.40;72.00
16016;BME280;8112;53.592;10.184;2023-06-14T20:37:42;101652.47;;;19.56;75.96
16016;BME280;8112;53.592;10.184;2023-06-14T20:42:44;101646.25;;;19.34;76.90
16016;BME280;8112;53.592;10.184;2023-06-14T20:47:47;101650.88;;;19.21;78.19
16016;BME280;8112;53.592;10.184;2023-06-14T20:52:49;101660.63;;;18.88;78.73
16016;BME280;8112;53.592;10.184;2023-06-14T20:57:51;101656.38;;;18.51;80.31
16016;BME280;8112;53.592;10.184;2023-06-14T21:02:54;101657.44;;;18.26;83.42
16016;BME280;8112;53.592;10.184;2023-06-14T21:07:57;101664.19;;;18.18;85.52
16016;BME280;8112;53.592;10.184;2023-06-14T21:12:59;101667.59;;;18.09;88.60
16016;BME280;8112;53.592;10.184;2023-06-14T21:18:02;101660.91;;;18.03;90.49
16016;BME280;8112;53.592;10.184;2023-06-14T21:23:04;101671.16;;;17.97;92.78
16016;BME280;8112;53.592;10.184;2023-06-14T21:28:06;101666.06;;;17.93;95.40
16016;BME280;8112;53.592;10.184;2023-06-14T21:33:09;101661.88;;;17.78;97.25
16016;BME280;8112;53.592;10.184;2023-06-14T21:38:11;101669.38;;;17.73;100.00
16016;BME280;8112;53.592;10.184;2023-06-14T21:43:13;101670.91;;;17.64;100.00
16016;BME280;8112;53.592;10.184;2023-06-14T21:48:16;101666.25;;;17.55;100.00
16016;BME280;8112;53.592;10.184;2023-06-14T21:53:18;101672.03;;;17.48;100.00
16016;BME280;8112;53.592;10.184;2023-06-14T21:58:19;101669.69;;;17.44;100.00
16016;BME280;8112;53.592;10.184;2023-06-14T22:03:22;101671.06;;;17.49;100.00
16016;BME280;8112;53.592;10.184;2023-06-14T22:08:24;101668.13;;;17.41;100.00
16016;BME280;8112;53.592;10.184;2023-06-14T22:13:26;101663.63;;;17.42;100.00
16016;BME280;8112;53.592;10.184;2023-06-14T22:18:30;101672.91;;;17.49;100.00
16016;BME280;8112;53.592;10.184;2023-06-14T22:23:32;101671.06;;;17.49;100.00
16016;BME280;8112;53.592;10.184;2023-06-14T22:28:37;101666.03;;;17.33;100.00
16016;BME280;8112;53.592;10.184;2023-06-14T22:33:44;101668.06;;;17.30;100.00
16016;BME280;8112;53.592;10.184;2023-06-14T22:38:46;101667.47;;;17.13;100.00
16016;BME280;8112;53.592;10.184;2023-06-14T22:43:48;101667.41;;;17.02;100.00
16016;BME280;8112;53.592;10.184;2023-06-14T22:48:51;101665.59;;;16.89;100.00
16016;BME280;8112;53.592;10.184;2023-06-14T22:53:53;101667.84;;;16.70;100.00
16016;BME280;8112;53.592;10.184;2023-06-14T22:58:55;101665.06;;;16.58;100.00
16016;BME280;8112;53.592;10.184;2023-06-14T23:03:58;101663.91;;;16.62;100.00
16016;BME280;8112;53.592;10.184;2023-06-14T23:09:00;101667.00;;;16.43;100.00
16016;BME280;8112;53.592;10.184;2023-06-14T23:14:04;101672.09;;;16.33;100.00
16016;BME280;8112;53.592;10.184;2023-06-14T23:19:07;101674.75;;;16.20;100.00
16016;BME280;8112;53.592;10.184;2023-06-14T23:24:09;101669.00;;;16.14;100.00
16016;BME280;8112;53.592;10.184;2023-06-14T23:29:11;101671.97;;;16.22;100.00
16016;BME280;8112;53.592;10.184;2023-06-14T23:34:14;101668.56;;;16.20;100.00
16016;BME280;8112;53.592;10.184;2023-06-14T23:39:17;101673.69;;;15.82;100.00
16016;BME280;8112;53.592;10.184;2023-06-14T23:44:19;101668.56;;;15.79;100.00
16016;BME280;8112;53.592;10.184;2023-06-14T23:49:23;101670.03;;;15.71;100.00
16016;BME280;8112;53.592;10.184;2023-06-14T23:54:25;101672.44;;;15.61;100.00
16016;BME280;8112;53.592;10.184;2023-06-14T23:59:27;101684.38;;;15.68;100.00
